createdAt,value
2018-08-12T00:00:52.625Z,1017.20
2018-08-12T00:01:52.491Z,1017.17
2018-08-12T00:02:52.644Z,1017.18
2018-08-12T00:03:52.442Z,1017.15
2018-08-12T00:04:52.557Z,1017.15
2018-08-12T00:05:52.398Z,1017.13
2018-08-12T00:06:52.569Z,1017.13
2018-08-12T00:07:52.351Z,1017.11
2018-08-12T00:08:52.481Z,1017.11
2018-08-12T00:09:52.308Z,1017.11
2018-08-12T00:10:52.507Z,1017.08
2018-08-12T00:11:52.264Z,1017.05
2018-08-12T00:12:52.405Z,1017.05
2018-08-12T00:13:52.215Z,1017.05
2018-08-12T00:14:52.316Z,1017.02
2018-08-12T00:15:52.170Z,1017.06
2018-08-12T00:16:52.333Z,1017.10
2018-08-12T00:17:52.129Z,1017.06
2018-08-12T00:18:52.243Z,1017.02
2018-08-12T00:19:52.077Z,1017.04
2018-08-12T00:20:52.256Z,1017.04
2018-08-12T00:21:52.039Z,1016.99
2018-08-12T00:22:52.168Z,1016.95
2018-08-12T00:23:51.986Z,1016.96
2018-08-12T00:24:52.080Z,1016.96
2018-08-12T00:25:51.946Z,1016.95
2018-08-12T00:26:51.992Z,1016.91
2018-08-12T00:27:51.895Z,1016.95
2018-08-12T00:28:52.005Z,1016.92
2018-08-12T00:29:51.843Z,1016.90
2018-08-12T00:30:51.918Z,1016.88
2018-08-12T00:31:51.808Z,1016.88
2018-08-12T00:32:51.828Z,1016.85
2018-08-12T00:33:51.765Z,1016.84
2018-08-12T00:34:51.843Z,1016.88
2018-08-12T00:35:51.712Z,1016.88
2018-08-12T00:36:51.755Z,1016.87
2018-08-12T00:37:51.667Z,1016.89
2018-08-12T00:38:51.768Z,1016.85
2018-08-12T00:39:51.616Z,1016.88
2018-08-12T00:40:51.683Z,1016.86
2018-08-12T00:41:51.580Z,1016.81
2018-08-12T00:42:51.592Z,1016.84
2018-08-12T00:43:51.529Z,1016.85
2018-08-12T00:44:51.606Z,1016.85
2018-08-12T00:45:51.498Z,1016.84
2018-08-12T00:46:51.517Z,1016.82
2018-08-12T00:47:51.454Z,1016.81
2018-08-12T00:48:51.532Z,1016.77
2018-08-12T00:49:51.397Z,1016.76
2018-08-12T00:50:51.444Z,1016.78
2018-08-12T00:51:51.352Z,1016.73
2018-08-12T00:52:51.458Z,1016.77
2018-08-12T00:53:51.298Z,1016.72
2018-08-12T00:54:51.373Z,1016.74
2018-08-12T00:55:51.269Z,1016.75
2018-08-12T00:56:51.282Z,1016.69
2018-08-12T00:57:51.215Z,1016.72
2018-08-12T00:58:51.296Z,1016.72
2018-08-12T00:59:51.164Z,1016.74
2018-08-12T01:00:51.209Z,1016.77
2018-08-12T01:01:51.113Z,1016.77
2018-08-12T01:02:51.227Z,1016.73
2018-08-12T01:03:51.068Z,1016.75
2018-08-12T01:04:51.136Z,1016.75
2018-08-12T01:05:51.023Z,1016.67
2018-08-12T01:06:51.148Z,1016.71
2018-08-12T01:07:50.975Z,1016.67
2018-08-12T01:08:51.060Z,1016.71
2018-08-12T01:09:50.930Z,1016.70
2018-08-12T01:10:50.976Z,1016.68
2018-08-12T01:11:50.886Z,1016.68
2018-08-12T01:12:50.989Z,1016.63
2018-08-12T01:13:50.836Z,1016.66
2018-08-12T01:14:50.899Z,1016.64
2018-08-12T01:15:50.790Z,1016.58
2018-08-12T01:16:50.911Z,1016.63
2018-08-12T01:17:50.744Z,1016.59
2018-08-12T01:18:50.825Z,1016.60
2018-08-12T01:19:50.697Z,1016.57
2018-08-12T01:20:50.842Z,1016.58
2018-08-12T01:21:50.653Z,1016.56
2018-08-12T01:22:50.753Z,1016.56
2018-08-12T01:23:50.615Z,1016.51
2018-08-12T01:24:50.777Z,1016.52
2018-08-12T01:25:50.564Z,1016.49
2018-08-12T01:26:50.677Z,1016.48
2018-08-12T01:27:50.515Z,1016.47
2018-08-12T01:28:50.588Z,1016.47
2018-08-12T01:29:50.471Z,1016.51
2018-08-12T01:30:50.602Z,1016.52
2018-08-12T01:31:50.420Z,1016.50
2018-08-12T01:32:50.515Z,1016.48
2018-08-12T01:33:50.376Z,1016.47
2018-08-12T01:34:50.527Z,1016.46
2018-08-12T01:35:50.335Z,1016.48
2018-08-12T01:36:50.442Z,1016.44
2018-08-12T01:37:50.282Z,1016.47
2018-08-12T01:38:50.351Z,1016.46
2018-08-12T01:39:50.233Z,1016.48
2018-08-12T01:40:50.370Z,1016.45
2018-08-12T01:41:50.185Z,1016.43
2018-08-12T01:42:50.281Z,1016.46
2018-08-12T01:43:50.142Z,1016.43
2018-08-12T01:44:50.295Z,1016.39
2018-08-12T01:45:50.098Z,1016.39
2018-08-12T01:46:50.208Z,1016.36
2018-08-12T01:47:50.057Z,1016.32
2018-08-12T01:48:50.226Z,1016.34
2018-08-12T01:49:50.002Z,1016.34
2018-08-12T01:50:50.137Z,1016.31
2018-08-12T01:51:49.952Z,1016.25
2018-08-12T01:52:50.043Z,1016.26
2018-08-12T01:53:49.909Z,1016.24
2018-08-12T01:54:50.066Z,1016.22
2018-08-12T01:55:49.864Z,1016.24
2018-08-12T01:56:49.968Z,1016.25
2018-08-12T01:57:49.816Z,1016.23
2018-08-12T01:58:49.987Z,1016.20
2018-08-12T01:59:49.770Z,1016.20
2018-08-12T02:00:49.896Z,1016.19
2018-08-12T02:01:49.722Z,1016.21
2018-08-12T02:02:49.808Z,1016.14
2018-08-12T02:03:49.684Z,1016.12
2018-08-12T02:04:49.821Z,1016.09
2018-08-12T02:05:49.633Z,1016.13
2018-08-12T02:06:49.733Z,1016.08
2018-08-12T02:07:49.586Z,1016.11
2018-08-12T02:08:49.747Z,1016.10
2018-08-12T02:09:49.533Z,1016.06
2018-08-12T02:10:49.663Z,1016.06
2018-08-12T02:11:49.489Z,1016.07
2018-08-12T02:12:49.673Z,1016.04
2018-08-12T02:13:49.443Z,1016.00
2018-08-12T02:14:49.585Z,1015.97
2018-08-12T02:15:49.393Z,1015.99
2018-08-12T02:16:49.501Z,1015.97
2018-08-12T02:17:49.350Z,1015.94
2018-08-12T02:18:49.509Z,1015.93
2018-08-12T02:19:49.302Z,1015.94
2018-08-12T02:20:49.323Z,1015.93
2018-08-12T02:21:49.253Z,1015.94
2018-08-12T02:22:49.335Z,1015.92
2018-08-12T02:23:49.210Z,1015.94
2018-08-12T02:24:49.255Z,1015.91
2018-08-12T02:25:49.160Z,1015.89
2018-08-12T02:26:49.262Z,1015.86
2018-08-12T02:27:49.118Z,1015.86
2018-08-12T02:28:49.170Z,1015.84
2018-08-12T02:29:49.069Z,1015.83
2018-08-12T02:30:49.085Z,1015.84
2018-08-12T02:31:49.019Z,1015.80
2018-08-12T02:32:49.100Z,1015.74
2018-08-12T02:33:48.975Z,1015.70
2018-08-12T02:34:49.016Z,1015.70
2018-08-12T02:35:48.928Z,1015.67
2018-08-12T02:36:49.025Z,1015.68
2018-08-12T02:37:48.880Z,1015.66
2018-08-12T02:38:48.937Z,1015.66
2018-08-12T02:39:48.830Z,1015.63
2018-08-12T02:40:48.847Z,1015.59
2018-08-12T02:41:48.788Z,1015.59
2018-08-12T02:42:48.860Z,1015.58
2018-08-12T02:43:48.739Z,1015.54
2018-08-12T02:44:48.775Z,1015.56
2018-08-12T02:45:48.695Z,1015.53
2018-08-12T02:46:48.791Z,1015.56
2018-08-12T02:47:48.647Z,1015.52
2018-08-12T02:48:48.704Z,1015.52
2018-08-12T02:49:48.596Z,1015.53
2018-08-12T02:50:48.721Z,1015.52
2018-08-12T02:51:48.554Z,1015.51
2018-08-12T02:52:48.627Z,1015.47
2018-08-12T02:53:48.506Z,1015.47
2018-08-12T02:54:48.540Z,1015.38
2018-08-12T02:55:48.456Z,1015.42
2018-08-12T02:56:48.549Z,1015.38
2018-08-12T02:57:48.410Z,1015.42
2018-08-12T02:58:48.464Z,1015.43
2018-08-12T02:59:48.362Z,1015.42
2018-08-12T03:00:48.480Z,1015.45
2018-08-12T03:01:48.315Z,1015.38
2018-08-12T03:02:48.390Z,1015.41
2018-08-12T03:03:48.268Z,1015.40
2018-08-12T03:04:48.303Z,1015.40
2018-08-12T03:05:48.221Z,1015.41
2018-08-12T03:06:48.317Z,1015.37
2018-08-12T03:07:48.173Z,1015.37
2018-08-12T03:08:48.228Z,1015.37
2018-08-12T03:09:48.128Z,1015.34
2018-08-12T03:10:48.246Z,1015.33
2018-08-12T03:11:48.083Z,1015.29
2018-08-12T03:12:48.156Z,1015.27
2018-08-12T03:13:48.032Z,1015.23
2018-08-12T03:14:48.171Z,1015.23
2018-08-12T03:15:47.984Z,1015.23
2018-08-12T03:16:48.085Z,1015.22
2018-08-12T03:17:47.946Z,1015.22
2018-08-12T03:18:47.993Z,1015.18
2018-08-12T03:19:47.892Z,1015.21
2018-08-12T03:20:48.010Z,1015.17
2018-08-12T03:21:47.846Z,1015.18
2018-08-12T03:22:47.920Z,1015.14
2018-08-12T03:23:47.795Z,1015.17
2018-08-12T03:24:47.934Z,1015.18
2018-08-12T03:25:47.749Z,1015.14
2018-08-12T03:26:47.849Z,1015.17
2018-08-12T03:27:47.701Z,1015.13
2018-08-12T03:28:47.757Z,1015.14
2018-08-12T03:29:47.654Z,1015.13
2018-08-12T03:30:47.772Z,1015.07
2018-08-12T03:31:47.614Z,1015.12
2018-08-12T03:32:47.681Z,1015.07
2018-08-12T03:33:47.566Z,1015.05
2018-08-12T03:34:47.713Z,1015.04
2018-08-12T03:35:47.511Z,1015.04
2018-08-12T03:36:47.609Z,1015.05
2018-08-12T03:37:47.467Z,1015.01
2018-08-12T03:38:47.621Z,1014.99
2018-08-12T03:39:47.416Z,1015.02
2018-08-12T03:40:47.534Z,1014.98
2018-08-12T03:41:47.414Z,1014.97
2018-08-12T03:42:47.446Z,1014.95
2018-08-12T03:43:47.321Z,1014.93
2018-08-12T03:44:47.461Z,1014.93
2018-08-12T03:45:47.274Z,1014.97
2018-08-12T03:46:47.371Z,1014.95
2018-08-12T03:47:47.228Z,1014.94
2018-08-12T03:48:47.392Z,1014.96
2018-08-12T03:49:47.226Z,1014.97
2018-08-12T03:50:47.298Z,1014.97
2018-08-12T03:51:47.134Z,1015.00
2018-08-12T03:52:47.208Z,1015.00
2018-08-12T03:53:47.086Z,1015.03
2018-08-12T03:54:47.224Z,1014.97
2018-08-12T03:55:47.037Z,1014.96
2018-08-12T03:56:47.136Z,1014.98
2018-08-12T03:57:47.000Z,1014.97
2018-08-12T03:58:47.150Z,1014.97
2018-08-12T03:59:46.942Z,1014.95
2018-08-12T04:00:47.060Z,1015.00
2018-08-12T04:01:46.897Z,1014.97
2018-08-12T04:02:47.075Z,1014.98
2018-08-12T04:03:46.848Z,1014.98
2018-08-12T04:04:46.987Z,1014.95
2018-08-12T04:05:46.802Z,1014.96
2018-08-12T04:06:46.900Z,1014.95
2018-08-12T04:07:46.757Z,1014.91
2018-08-12T04:08:46.917Z,1014.90
2018-08-12T04:09:46.705Z,1014.94
2018-08-12T04:10:46.825Z,1014.96
2018-08-12T04:11:46.657Z,1014.94
2018-08-12T04:12:46.843Z,1014.95
2018-08-12T04:13:46.620Z,1014.93
2018-08-12T04:14:46.752Z,1014.95
2018-08-12T04:15:46.563Z,1014.91
2018-08-12T04:16:46.662Z,1014.90
2018-08-12T04:17:46.517Z,1014.89
2018-08-12T04:18:46.575Z,1014.88
2018-08-12T04:19:46.469Z,1014.87
2018-08-12T04:20:46.487Z,1014.84
2018-08-12T04:21:46.436Z,1014.84
2018-08-12T04:22:46.503Z,1014.84
2018-08-12T04:23:46.375Z,1014.83
2018-08-12T04:24:46.402Z,1014.83
2018-08-12T04:25:46.325Z,1014.82
2018-08-12T04:26:46.426Z,1014.86
2018-08-12T04:27:46.277Z,1014.84
2018-08-12T04:28:46.338Z,1014.86
2018-08-12T04:29:46.232Z,1014.86
2018-08-12T04:30:46.253Z,1014.79
2018-08-12T04:31:46.182Z,1014.82
2018-08-12T04:32:46.266Z,1014.78
2018-08-12T04:33:46.138Z,1014.81
2018-08-12T04:34:46.177Z,1014.82
2018-08-12T04:35:46.086Z,1014.82
2018-08-12T04:36:46.193Z,1014.79
2018-08-12T04:37:46.040Z,1014.79
2018-08-12T04:38:46.102Z,1014.79
2018-08-12T04:39:45.992Z,1014.77
2018-08-12T04:40:46.022Z,1014.77
2018-08-12T04:41:45.947Z,1014.73
2018-08-12T04:42:46.030Z,1014.71
2018-08-12T04:43:45.900Z,1014.74
2018-08-12T04:44:45.941Z,1014.75
2018-08-12T04:45:45.849Z,1014.76
2018-08-12T04:46:45.955Z,1014.73
2018-08-12T04:47:45.800Z,1014.76
2018-08-12T04:48:45.866Z,1014.74
2018-08-12T04:49:45.757Z,1014.75
2018-08-12T04:50:45.775Z,1014.77
2018-08-12T04:51:45.709Z,1014.76
2018-08-12T04:52:45.798Z,1014.71
2018-08-12T04:53:45.661Z,1014.74
2018-08-12T04:54:45.703Z,1014.76
2018-08-12T04:55:45.611Z,1014.75
2018-08-12T04:56:45.716Z,1014.76
2018-08-12T04:57:45.564Z,1014.73
2018-08-12T04:58:45.630Z,1014.71
2018-08-12T04:59:45.515Z,1014.74
2018-08-12T05:00:45.644Z,1014.76
2018-08-12T05:01:45.475Z,1014.72
2018-08-12T05:02:45.557Z,1014.71
2018-08-12T05:03:45.422Z,1014.69
2018-08-12T05:04:45.469Z,1014.71
2018-08-12T05:05:45.390Z,1014.69
2018-08-12T05:06:45.483Z,1014.73
2018-08-12T05:07:45.326Z,1014.76
2018-08-12T05:08:45.393Z,1014.71
2018-08-12T05:09:45.281Z,1014.72
2018-08-12T05:10:45.407Z,1014.70
2018-08-12T05:11:45.233Z,1014.69
2018-08-12T05:12:45.320Z,1014.68
2018-08-12T05:13:45.187Z,1014.69
2018-08-12T05:14:45.230Z,1014.65
2018-08-12T05:15:45.139Z,1014.68
2018-08-12T05:16:45.247Z,1014.67
2018-08-12T05:17:45.093Z,1014.69
2018-08-12T05:18:45.161Z,1014.69
2018-08-12T05:19:45.047Z,1014.69
2018-08-12T05:20:45.170Z,1014.70
2018-08-12T05:21:44.995Z,1014.67
2018-08-12T05:22:45.082Z,1014.66
2018-08-12T05:23:44.949Z,1014.65
2018-08-12T05:24:45.100Z,1014.63
2018-08-12T05:25:44.897Z,1014.60
2018-08-12T05:26:45.013Z,1014.64
2018-08-12T05:27:44.859Z,1014.58
2018-08-12T05:28:44.921Z,1014.61
2018-08-12T05:29:44.807Z,1014.60
2018-08-12T05:30:44.938Z,1014.60
2018-08-12T05:31:44.762Z,1014.57
2018-08-12T05:32:44.851Z,1014.57
2018-08-12T05:33:44.713Z,1014.56
2018-08-12T05:34:44.856Z,1014.55
2018-08-12T05:35:44.670Z,1014.57
2018-08-12T05:36:44.775Z,1014.53
2018-08-12T05:37:44.619Z,1014.54
2018-08-12T05:38:44.790Z,1014.52
2018-08-12T05:39:44.570Z,1014.52
2018-08-12T05:40:44.701Z,1014.53
2018-08-12T05:41:44.526Z,1014.52
2018-08-12T05:42:44.613Z,1014.53
2018-08-12T05:43:44.476Z,1014.52
2018-08-12T05:44:44.628Z,1014.52
2018-08-12T05:45:44.433Z,1014.51
2018-08-12T05:46:44.555Z,1014.49
2018-08-12T05:47:44.391Z,1014.48
2018-08-12T05:48:44.555Z,1014.46
2018-08-12T05:49:44.338Z,1014.46
2018-08-12T05:50:44.468Z,1014.45
2018-08-12T05:51:44.296Z,1014.46
2018-08-12T05:52:44.381Z,1014.44
2018-08-12T05:53:44.254Z,1014.44
2018-08-12T05:54:44.394Z,1014.46
2018-08-12T05:55:44.198Z,1014.43
2018-08-12T05:56:44.306Z,1014.43
2018-08-12T05:57:44.154Z,1014.40
2018-08-12T05:58:44.322Z,1014.39
2018-08-12T05:59:44.106Z,1014.38
2018-08-12T06:00:44.231Z,1014.36
2018-08-12T06:01:44.107Z,1014.36
2018-08-12T06:02:44.323Z,1014.37
2018-08-12T06:03:44.014Z,1014.35
2018-08-12T06:04:44.159Z,1014.38
2018-08-12T06:05:43.965Z,1014.35
2018-08-12T06:06:44.071Z,1014.39
2018-08-12T06:07:43.917Z,1014.34
2018-08-12T06:08:44.140Z,1014.40
2018-08-12T06:09:43.875Z,1014.40
2018-08-12T06:10:43.996Z,1014.41
2018-08-12T06:11:43.826Z,1014.45
2018-08-12T06:12:44.010Z,1014.42
2018-08-12T06:13:43.782Z,1014.40
2018-08-12T06:14:43.922Z,1014.43
2018-08-12T06:15:43.732Z,1014.40
2018-08-12T06:16:43.835Z,1014.39
2018-08-12T06:17:43.726Z,1014.37
2018-08-12T06:18:43.745Z,1014.37
2018-08-12T06:19:43.671Z,1014.38
2018-08-12T06:20:43.656Z,1014.35
2018-08-12T06:21:43.644Z,1014.33
2018-08-12T06:22:43.686Z,1014.32
2018-08-12T06:23:43.551Z,1014.32
2018-08-12T06:24:43.580Z,1014.37
2018-08-12T06:25:43.526Z,1014.37
2018-08-12T06:26:43.595Z,1014.34
2018-08-12T06:27:43.474Z,1014.37
2018-08-12T06:28:43.505Z,1014.32
2018-08-12T06:29:43.415Z,1014.37
2018-08-12T06:30:43.520Z,1014.36
2018-08-12T06:31:43.366Z,1014.39
2018-08-12T06:32:43.433Z,1014.36
2018-08-12T06:33:43.324Z,1014.35
2018-08-12T06:34:43.344Z,1014.37
2018-08-12T06:35:43.277Z,1014.34
2018-08-12T06:36:43.358Z,1014.38
2018-08-12T06:37:43.229Z,1014.32
2018-08-12T06:38:43.272Z,1014.37
2018-08-12T06:39:43.229Z,1014.33
2018-08-12T06:40:43.332Z,1014.31
2018-08-12T06:41:43.137Z,1014.33
2018-08-12T06:42:43.197Z,1014.30
2018-08-12T06:43:43.094Z,1014.34
2018-08-12T06:44:43.209Z,1014.29
2018-08-12T06:45:43.047Z,1014.28
2018-08-12T06:46:43.150Z,1014.25
2018-08-12T06:47:43.002Z,1014.27
2018-08-12T06:48:43.034Z,1014.25
2018-08-12T06:49:42.961Z,1014.27
2018-08-12T06:50:43.050Z,1014.26
2018-08-12T06:51:42.995Z,1014.26
2018-08-12T06:52:42.960Z,1014.24
2018-08-12T06:53:42.869Z,1014.26
2018-08-12T06:54:42.974Z,1014.27
2018-08-12T06:55:42.816Z,1014.28
2018-08-12T06:56:42.893Z,1014.23
2018-08-12T06:57:42.775Z,1014.23
2018-08-12T06:58:42.900Z,1014.20
2018-08-12T06:59:42.728Z,1014.21
2018-08-12T07:00:42.811Z,1014.20
2018-08-12T07:01:42.685Z,1014.24
2018-08-12T07:02:42.726Z,1014.22
2018-08-12T07:03:42.641Z,1014.23
2018-08-12T07:04:42.738Z,1014.24
2018-08-12T07:05:42.595Z,1014.22
2018-08-12T07:06:42.709Z,1014.20
2018-08-12T07:07:42.554Z,1014.22
2018-08-12T07:08:42.664Z,1014.23
2018-08-12T07:09:42.502Z,1014.18
2018-08-12T07:10:42.575Z,1014.18
2018-08-12T07:11:42.459Z,1014.18
2018-08-12T07:12:42.589Z,1014.17
2018-08-12T07:13:42.414Z,1014.17
2018-08-12T07:14:42.497Z,1014.16
2018-08-12T07:15:42.366Z,1014.19
2018-08-12T07:16:42.513Z,1014.21
2018-08-12T07:17:42.326Z,1014.17
2018-08-12T07:18:42.431Z,1014.17
2018-08-12T07:19:42.282Z,1014.20
2018-08-12T07:20:42.340Z,1014.25
2018-08-12T07:21:42.239Z,1014.21
2018-08-12T07:22:42.356Z,1014.21
2018-08-12T07:23:42.189Z,1014.22
2018-08-12T07:24:42.291Z,1014.19
2018-08-12T07:25:42.150Z,1014.23
2018-08-12T07:26:42.288Z,1014.25
2018-08-12T07:27:42.101Z,1014.21
2018-08-12T07:28:42.195Z,1014.23
2018-08-12T07:29:42.056Z,1014.20
2018-08-12T07:30:42.213Z,1014.21
2018-08-12T07:31:42.014Z,1014.21
2018-08-12T07:32:42.131Z,1014.21
2018-08-12T07:33:41.968Z,1014.21
2018-08-12T07:34:42.134Z,1014.22
2018-08-12T07:35:41.921Z,1014.21
2018-08-12T07:36:42.048Z,1014.23
2018-08-12T07:37:41.891Z,1014.19
2018-08-12T07:38:42.018Z,1014.17
2018-08-12T07:39:41.837Z,1014.13
2018-08-12T07:40:41.872Z,1014.15
2018-08-12T07:41:41.794Z,1014.13
2018-08-12T07:42:41.883Z,1014.10
2018-08-12T07:43:41.752Z,1014.10
2018-08-12T07:44:41.897Z,1014.08
2018-08-12T07:45:41.707Z,1014.08
2018-08-12T07:46:41.707Z,1014.07
2018-08-12T07:47:41.666Z,1014.05
2018-08-12T07:48:42.376Z,1014.07
2018-08-12T07:49:41.622Z,1014.06
2018-08-12T07:50:41.634Z,1014.04
2018-08-12T07:51:41.575Z,1014.01
2018-08-12T07:52:41.750Z,1014.03
2018-08-12T07:53:41.526Z,1014.02
2018-08-12T07:54:41.669Z,1014.00
2018-08-12T07:55:41.608Z,1013.97
2018-08-12T07:56:41.679Z,1014.07
2018-08-12T07:57:41.444Z,1014.03
2018-08-12T07:58:41.586Z,1014.07
2018-08-12T07:59:41.404Z,1014.04
2018-08-12T08:00:41.515Z,1014.02
2018-08-12T08:01:41.358Z,1014.05
2018-08-12T08:02:41.521Z,1013.98
2018-08-12T08:03:41.320Z,1013.96
2018-08-12T08:04:41.432Z,1013.96
2018-08-12T08:05:41.272Z,1013.98
2018-08-12T08:06:41.450Z,1013.92
2018-08-12T08:07:41.233Z,1013.89
2018-08-12T08:08:41.353Z,1013.92
2018-08-12T08:09:41.194Z,1013.90
2018-08-12T08:10:41.268Z,1013.86
2018-08-12T08:11:41.147Z,1013.82
2018-08-12T08:12:41.295Z,1013.84
2018-08-12T08:13:41.102Z,1013.85
2018-08-12T08:14:41.191Z,1013.87
2018-08-12T08:15:41.061Z,1013.86
2018-08-12T08:16:41.105Z,1013.82
2018-08-12T08:17:41.020Z,1013.83
2018-08-12T08:18:41.119Z,1013.81
2018-08-12T08:19:41.042Z,1013.85
2018-08-12T08:20:41.029Z,1013.88
2018-08-12T08:21:40.938Z,1013.83
2018-08-12T08:22:41.046Z,1013.81
2018-08-12T08:23:40.887Z,1013.81
2018-08-12T08:24:40.955Z,1013.83
2018-08-12T08:25:40.892Z,1013.79
2018-08-12T08:26:40.865Z,1013.80
2018-08-12T08:27:40.811Z,1013.81
2018-08-12T08:28:40.889Z,1013.79
2018-08-12T08:29:40.771Z,1013.75
2018-08-12T08:30:40.812Z,1013.80
2018-08-12T08:31:40.927Z,1013.71
2018-08-12T08:32:40.809Z,1013.75
2018-08-12T08:33:40.694Z,1013.74
2018-08-12T08:34:40.717Z,1013.72
2018-08-12T08:35:40.650Z,1013.73
2018-08-12T08:36:40.734Z,1013.79
2018-08-12T08:37:40.607Z,1013.74
2018-08-12T08:38:40.614Z,1013.81
2018-08-12T08:39:40.563Z,1013.79
2018-08-12T08:40:40.635Z,1013.76
2018-08-12T08:41:40.528Z,1013.75
2018-08-12T08:42:40.575Z,1013.74
2018-08-12T08:43:40.484Z,1013.77
2018-08-12T08:44:40.488Z,1013.73
2018-08-12T08:45:40.445Z,1013.75
2018-08-12T08:46:40.500Z,1013.71
2018-08-12T08:47:40.405Z,1013.70
2018-08-12T08:48:40.389Z,1013.68
2018-08-12T08:49:40.353Z,1013.67
2018-08-12T08:50:40.425Z,1013.70
2018-08-12T08:51:40.343Z,1013.68
2018-08-12T08:52:40.333Z,1013.67
2018-08-12T08:53:40.281Z,1013.64
2018-08-12T08:54:40.346Z,1013.70
2018-08-12T08:55:40.267Z,1013.61
2018-08-12T08:56:40.263Z,1013.59
2018-08-12T08:57:40.208Z,1013.62
2018-08-12T08:58:40.275Z,1013.63
2018-08-12T08:59:40.161Z,1013.66
2018-08-12T09:00:40.187Z,1013.62
2018-08-12T09:01:40.120Z,1013.56
2018-08-12T09:02:40.203Z,1013.60
2018-08-12T09:03:40.081Z,1013.57
2018-08-12T09:04:40.120Z,1013.51
2018-08-12T09:05:40.105Z,1013.51
2018-08-12T09:06:40.208Z,1013.49
2018-08-12T09:07:40.004Z,1013.51
2018-08-12T09:08:41.288Z,1013.46
2018-08-12T09:09:39.966Z,1013.52
2018-08-12T09:10:40.052Z,1013.52
2018-08-12T09:11:39.925Z,1013.52
2018-08-12T09:12:39.963Z,1013.54
2018-08-12T09:13:39.888Z,1013.54
2018-08-12T09:14:39.984Z,1013.51
2018-08-12T09:15:39.848Z,1013.52
2018-08-12T09:16:39.891Z,1013.54
2018-08-12T09:17:39.814Z,1013.49
2018-08-12T09:18:39.906Z,1013.43
2018-08-12T09:19:39.773Z,1013.41
2018-08-12T09:20:39.841Z,1013.39
2018-08-12T09:21:39.731Z,1013.44
2018-08-12T09:22:39.726Z,1013.42
2018-08-12T09:23:39.698Z,1013.43
2018-08-12T09:24:39.752Z,1013.38
2018-08-12T09:25:39.665Z,1013.38
2018-08-12T09:26:39.655Z,1013.39
2018-08-12T09:27:39.624Z,1013.36
2018-08-12T09:28:39.673Z,1013.33
2018-08-12T09:29:39.589Z,1013.31
2018-08-12T09:30:39.579Z,1013.32
2018-08-12T09:31:39.549Z,1013.26
2018-08-12T09:32:39.595Z,1013.30
2018-08-12T09:33:39.514Z,1013.29
2018-08-12T09:34:39.506Z,1013.27
2018-08-12T09:35:39.479Z,1013.30
2018-08-12T09:36:39.520Z,1013.30
2018-08-12T09:37:39.438Z,1013.25
2018-08-12T09:38:39.430Z,1013.30
2018-08-12T09:39:39.404Z,1013.27
2018-08-12T09:40:39.449Z,1013.23
2018-08-12T09:41:39.363Z,1013.22
2018-08-12T09:42:39.460Z,1013.20
2018-08-12T09:43:39.330Z,1013.21
2018-08-12T09:44:39.371Z,1013.17
2018-08-12T09:45:39.290Z,1013.18
2018-08-12T09:46:39.386Z,1013.26
2018-08-12T09:47:39.263Z,1013.22
2018-08-12T09:48:39.294Z,1013.21
2018-08-12T09:49:39.222Z,1013.19
2018-08-12T09:50:39.313Z,1013.17
2018-08-12T09:51:39.267Z,1013.22
2018-08-12T09:52:39.328Z,1013.22
2018-08-12T09:53:39.173Z,1013.20
2018-08-12T09:54:39.341Z,1013.23
2018-08-12T09:55:39.119Z,1013.21
2018-08-12T09:56:39.127Z,1013.20
2018-08-12T09:57:39.091Z,1013.20
2018-08-12T09:58:39.266Z,1013.18
2018-08-12T09:59:39.051Z,1013.20
2018-08-12T10:00:39.181Z,1013.21
2018-08-12T10:01:39.015Z,1013.19
2018-08-12T10:02:39.191Z,1013.18
2018-08-12T10:03:38.985Z,1013.11
2018-08-12T10:04:39.103Z,1013.18
2018-08-12T10:05:38.947Z,1013.16
2018-08-12T10:06:39.117Z,1013.20
2018-08-12T10:07:38.914Z,1013.18
2018-08-12T10:08:38.928Z,1013.14
2018-08-12T10:09:38.882Z,1013.13
2018-08-12T10:10:38.942Z,1013.07
2018-08-12T10:11:38.860Z,1013.10
2018-08-12T10:12:38.854Z,1013.15
2018-08-12T10:13:38.818Z,1013.10
2018-08-12T10:14:38.874Z,1013.08
2018-08-12T10:15:38.851Z,1013.06
2018-08-12T10:16:38.888Z,1013.09
2018-08-12T10:17:38.751Z,1013.07
2018-08-12T10:18:38.794Z,1013.02
2018-08-12T10:19:38.720Z,1013.03
2018-08-12T10:20:38.909Z,1013.02
2018-08-12T10:21:38.714Z,1013.05
2018-08-12T10:22:38.728Z,1013.02
2018-08-12T10:23:38.656Z,1013.00
2018-08-12T10:24:38.738Z,1012.93
2018-08-12T10:25:38.628Z,1012.88
2018-08-12T10:26:38.775Z,1012.92
2018-08-12T10:27:38.595Z,1012.90
2018-08-12T10:28:38.660Z,1012.90
2018-08-12T10:29:38.568Z,1012.87
2018-08-12T10:30:38.704Z,1012.87
2018-08-12T10:31:38.537Z,1012.92
2018-08-12T10:32:38.590Z,1012.97
2018-08-12T10:33:38.508Z,1012.91
2018-08-12T10:34:38.606Z,1012.91
2018-08-12T10:35:38.470Z,1012.88
2018-08-12T10:36:38.512Z,1012.84
2018-08-12T10:37:38.442Z,1012.83
2018-08-12T10:38:38.530Z,1012.82
2018-08-12T10:39:38.410Z,1012.82
2018-08-12T10:40:38.440Z,1012.80
2018-08-12T10:41:38.381Z,1012.76
2018-08-12T10:42:38.455Z,1012.68
2018-08-12T10:43:38.350Z,1012.69
2018-08-12T10:44:38.467Z,1012.70
2018-08-12T10:45:38.329Z,1012.68
2018-08-12T10:46:38.383Z,1012.64
2018-08-12T10:47:38.282Z,1012.59
2018-08-12T10:48:38.392Z,1012.63
2018-08-12T10:49:38.264Z,1012.63
2018-08-12T10:50:38.304Z,1012.63
2018-08-12T10:51:38.232Z,1012.61
2018-08-12T10:52:38.324Z,1012.63
2018-08-12T10:53:38.200Z,1012.61
2018-08-12T10:54:38.380Z,1012.52
2018-08-12T10:55:38.170Z,1012.55
2018-08-12T10:56:38.245Z,1012.53
2018-08-12T10:57:38.146Z,1012.55
2018-08-12T10:58:38.261Z,1012.54
2018-08-12T10:59:38.115Z,1012.58
2018-08-12T11:00:38.170Z,1012.57
2018-08-12T11:01:38.084Z,1012.51
2018-08-12T11:02:38.081Z,1012.49
2018-08-12T11:03:38.053Z,1012.48
2018-08-12T11:04:38.201Z,1012.49
2018-08-12T11:05:38.027Z,1012.46
2018-08-12T11:06:38.108Z,1012.44
2018-08-12T11:07:37.997Z,1012.44
2018-08-12T11:08:37.990Z,1012.45
2018-08-12T11:09:38.129Z,1012.43
2018-08-12T11:10:37.955Z,1012.42
2018-08-12T11:11:38.044Z,1012.39
2018-08-12T11:12:37.956Z,1012.44
2018-08-12T11:13:38.060Z,1012.39
2018-08-12T11:14:37.902Z,1012.47
2018-08-12T11:15:37.968Z,1012.41
2018-08-12T11:16:37.868Z,1012.42
2018-08-12T11:17:38.031Z,1012.39
2018-08-12T11:18:37.846Z,1012.43
2018-08-12T11:19:37.995Z,1012.37
2018-08-12T11:20:37.860Z,1012.36
2018-08-12T11:21:37.913Z,1012.37
2018-08-12T11:22:37.816Z,1012.37
2018-08-12T11:23:37.926Z,1012.38
2018-08-12T11:24:37.767Z,1012.28
2018-08-12T11:25:37.844Z,1012.24
2018-08-12T11:26:37.746Z,1012.24
2018-08-12T11:27:37.853Z,1012.23
2018-08-12T11:28:37.760Z,1012.25
2018-08-12T11:29:37.865Z,1012.30
2018-08-12T11:30:37.772Z,1012.25
2018-08-12T11:31:37.660Z,1012.12
2018-08-12T11:32:37.785Z,1012.17
2018-08-12T11:33:37.644Z,1012.15
2018-08-12T11:34:37.806Z,1012.14
2018-08-12T11:35:37.608Z,1012.14
2018-08-12T11:36:37.593Z,1012.20
2018-08-12T11:37:37.736Z,1012.13
2018-08-12T11:38:37.572Z,1012.12
2018-08-12T11:39:37.737Z,1012.12
2018-08-12T11:40:37.541Z,1012.14
2018-08-12T11:41:37.644Z,1012.05
2018-08-12T11:42:37.517Z,1012.14
2018-08-12T11:43:37.658Z,1012.10
2018-08-12T11:44:37.518Z,1012.07
2018-08-12T11:45:37.674Z,1012.05
2018-08-12T11:46:37.463Z,1011.99
2018-08-12T11:47:37.656Z,1011.94
2018-08-12T11:48:37.440Z,1011.97
2018-08-12T11:49:37.601Z,1011.97
2018-08-12T11:50:37.423Z,1011.90
2018-08-12T11:51:37.524Z,1011.93
2018-08-12T11:52:37.395Z,1011.87
2018-08-12T11:53:37.423Z,1011.84
2018-08-12T11:54:37.370Z,1011.91
2018-08-12T11:55:37.439Z,1011.84
2018-08-12T11:56:37.340Z,1011.79
2018-08-12T11:57:37.348Z,1011.81
2018-08-12T11:58:37.315Z,1011.73
2018-08-12T11:59:37.365Z,1011.71
2018-08-12T12:00:37.293Z,1011.80
2018-08-12T12:01:37.379Z,1011.75
2018-08-12T12:02:37.265Z,1011.78
2018-08-12T12:03:37.300Z,1011.73
2018-08-12T12:04:37.238Z,1011.75
2018-08-12T12:05:37.305Z,1011.79